createdAt,value
2023-11-21T00:01:05.434Z,0.68
2023-11-21T00:03:07.994Z,1.45
2023-11-21T00:05:11.197Z,2.17
2023-11-21T00:07:12.818Z,0.98
2023-11-21T00:09:16.487Z,1.33
2023-11-21T00:11:18.005Z,1.00
2023-11-21T00:13:19.723Z,1.38
2023-11-21T00:15:21.259Z,2.47
2023-11-21T00:17:22.862Z,1.55
2023-11-21T00:19:24.417Z,1.10
2023-11-21T00:21:25.929Z,1.23
2023-11-21T00:23:27.398Z,1.58
2023-11-21T00:25:29.460Z,1.38
2023-11-21T00:27:31.675Z,1.10
2023-11-21T00:29:33.737Z,2.78
2023-11-21T00:31:37.186Z,0.93
2023-11-21T00:33:38.830Z,1.20
2023-11-21T00:35:40.751Z,0.57
2023-11-21T00:37:43.519Z,1.55
2023-11-21T00:39:45.002Z,0.93
2023-11-21T00:41:46.599Z,1.65
2023-11-21T00:43:48.187Z,1.75
2023-11-21T00:45:52.319Z,0.70
2023-11-21T00:47:53.874Z,0.77
2023-11-21T00:49:55.689Z,0.80
2023-11-21T00:51:59.107Z,0.80
2023-11-21T00:54:02.267Z,2.03
2023-11-21T00:56:04.053Z,1.80
2023-11-21T00:58:05.566Z,1.02
2023-11-21T01:00:15.086Z,1.33
2023-11-21T01:02:16.758Z,2.15
2023-11-21T01:04:18.317Z,0.88
2023-11-21T01:06:20.740Z,1.98
2023-11-21T01:08:25.222Z,1.45
2023-11-21T01:10:26.733Z,1.27
2023-11-21T01:12:29.267Z,1.73
2023-11-21T01:14:30.722Z,1.83
2023-11-21T01:16:33.806Z,1.83
2023-11-21T01:18:38.722Z,1.27
2023-11-21T01:20:41.379Z,1.20
2023-11-21T01:22:43.058Z,0.77
2023-11-21T01:24:44.544Z,1.15
2023-11-21T01:26:47.813Z,2.28
2023-11-21T01:28:52.052Z,0.95
2023-11-21T01:30:57.676Z,1.17
2023-11-21T01:33:00.125Z,1.35
2023-11-21T01:35:01.947Z,1.42
2023-11-21T01:37:05.605Z,1.17
2023-11-21T01:39:09.840Z,1.23
2023-11-21T01:41:12.380Z,1.80
2023-11-21T01:43:13.980Z,1.92
2023-11-21T01:45:15.641Z,2.58
2023-11-21T01:47:17.561Z,1.90
2023-11-21T01:49:19.489Z,0.95
2023-11-21T01:51:21.404Z,1.75
2023-11-21T01:53:23.026Z,0.82
2023-11-21T01:55:28.060Z,2.75
2023-11-21T01:57:31.017Z,1.60
2023-11-21T01:59:35.993Z,1.08
2023-11-21T02:01:37.567Z,2.42
2023-11-21T02:03:39.125Z,0.68
2023-11-21T02:05:41.225Z,1.80
2023-11-21T02:07:46.012Z,2.03
2023-11-21T02:09:47.560Z,1.80
2023-11-21T02:11:50.621Z,0.82
2023-11-21T02:13:55.151Z,1.55
2023-11-21T02:15:57.215Z,2.00
2023-11-21T02:17:59.658Z,4.85
2023-11-21T02:20:01.544Z,2.67
2023-11-21T02:22:05.814Z,2.03
2023-11-21T02:24:09.581Z,2.70
2023-11-21T02:26:12.575Z,1.00
2023-11-21T02:28:16.588Z,1.77
2023-11-21T02:30:18.420Z,1.98
2023-11-21T02:32:20.367Z,1.20
2023-11-21T02:34:22.893Z,1.58
2023-11-21T02:36:24.494Z,1.48
2023-11-21T02:38:26.091Z,1.55
2023-11-21T02:40:28.032Z,1.13
2023-11-21T02:42:30.260Z,1.60
2023-11-21T02:44:32.029Z,1.20
2023-11-21T02:46:34.807Z,1.15
2023-11-21T02:48:37.028Z,2.47
2023-11-21T02:50:38.610Z,1.60
2023-11-21T02:52:41.243Z,1.92
2023-11-21T02:54:42.790Z,1.13
2023-11-21T02:56:44.282Z,0.80
2023-11-21T02:58:47.765Z,1.02
2023-11-21T03:00:49.256Z,1.08
2023-11-21T03:02:50.896Z,1.67
2023-11-21T03:04:52.825Z,1.10
2023-11-21T03:06:54.737Z,1.83
2023-11-21T03:08:56.212Z,1.27
2023-11-21T03:10:57.765Z,0.93
2023-11-21T03:12:59.318Z,1.55
2023-11-21T03:15:00.883Z,1.67
2023-11-21T03:17:02.776Z,1.02
2023-11-21T03:19:04.305Z,2.08
2023-11-21T03:21:07.150Z,1.65
2023-11-21T03:23:13.530Z,1.92
2023-11-21T03:25:16.940Z,0.90
2023-11-21T03:27:18.441Z,1.52
2023-11-21T03:29:20.062Z,0.82
2023-11-21T03:31:22.222Z,1.55
2023-11-21T03:33:23.804Z,1.67
2023-11-21T03:35:25.734Z,0.95
2023-11-21T03:37:28.651Z,1.25
2023-11-21T03:39:30.677Z,1.15
2023-11-21T03:41:32.229Z,1.00
2023-11-21T03:43:33.764Z,2.08
2023-11-21T03:45:35.291Z,1.63
2023-11-21T03:47:36.861Z,0.95
2023-11-21T03:49:39.616Z,2.63
2023-11-21T03:51:41.123Z,0.93
2023-11-21T03:53:42.945Z,0.50
2023-11-21T03:55:45.384Z,1.00
2023-11-21T03:57:47.336Z,1.75
2023-11-21T03:59:48.908Z,1.27
2023-11-21T04:01:50.478Z,0.77
2023-11-21T04:03:52.345Z,1.05
2023-11-21T04:05:53.908Z,1.42
2023-11-21T04:07:55.428Z,2.72
2023-11-21T04:09:57.019Z,1.45
2023-11-21T04:11:58.580Z,1.70
2023-11-21T04:14:00.499Z,1.90
2023-11-21T04:16:04.346Z,1.50
2023-11-21T04:18:06.337Z,1.20
2023-11-21T04:20:10.506Z,2.40
2023-11-21T04:22:12.063Z,1.25
2023-11-21T04:24:13.675Z,1.30
2023-11-21T04:26:15.135Z,1.63
2023-11-21T04:28:16.662Z,1.17
2023-11-21T04:30:18.186Z,2.00
2023-11-21T04:32:19.678Z,2.05
2023-11-21T04:34:21.196Z,1.98
2023-11-21T04:36:22.741Z,1.83
2023-11-21T04:38:24.207Z,2.15
2023-11-21T04:40:28.278Z,1.98
2023-11-21T04:42:30.102Z,4.05
2023-11-21T04:44:31.633Z,1.90
2023-11-21T04:46:33.459Z,3.17
2023-11-21T04:48:35.038Z,2.17
2023-11-21T04:50:36.490Z,2.97
2023-11-21T04:52:38.211Z,3.88
2023-11-21T04:54:40.952Z,3.38
2023-11-21T04:56:43.048Z,5.78
2023-11-21T04:58:45.338Z,5.80
2023-11-21T05:00:46.837Z,4.57
2023-11-21T05:02:49.045Z,4.57
2023-11-21T05:04:50.722Z,5.90
2023-11-21T05:06:52.228Z,4.30
2023-11-21T05:08:53.993Z,3.53
2023-11-21T05:10:55.493Z,4.63
2023-11-21T05:12:57.044Z,4.35
2023-11-21T05:14:59.420Z,2.30
2023-11-21T05:17:01.012Z,2.42
2023-11-21T05:19:02.654Z,3.53
2023-11-21T05:21:04.517Z,2.00
2023-11-21T05:23:06.041Z,2.85
2023-11-21T05:25:09.300Z,2.78
2023-11-21T05:27:10.913Z,2.08
2023-11-21T05:29:12.497Z,2.65
2023-11-21T05:31:16.885Z,3.97
2023-11-21T05:33:19.799Z,1.58
2023-11-21T05:35:22.293Z,2.03
2023-11-21T05:37:24.407Z,3.88
2023-11-21T05:39:25.896Z,2.40
2023-11-21T05:41:27.399Z,2.90
2023-11-21T05:43:31.141Z,3.22
2023-11-21T05:45:32.700Z,2.03
2023-11-21T05:47:34.323Z,2.10
2023-11-21T05:49:36.142Z,2.15
2023-11-21T05:51:39.117Z,2.35
2023-11-21T05:53:41.917Z,2.22
2023-11-21T05:55:43.461Z,1.85
2023-11-21T05:57:45.157Z,2.05
2023-11-21T05:59:47.079Z,1.63
2023-11-21T06:01:48.595Z,3.92
2023-11-21T06:03:50.181Z,2.78
2023-11-21T06:05:51.899Z,2.45
2023-11-21T06:08:00.690Z,2.55
2023-11-21T06:10:12.465Z,2.88
2023-11-21T06:12:13.958Z,2.38
2023-11-21T06:14:18.919Z,3.40
2023-11-21T06:16:20.764Z,2.85
2023-11-21T06:18:22.575Z,1.83
2023-11-21T06:20:24.513Z,1.48
2023-11-21T06:22:26.345Z,2.13
2023-11-21T06:24:27.829Z,2.08
2023-11-21T06:26:29.665Z,1.48
2023-11-21T06:28:31.616Z,2.30
2023-11-21T06:30:33.157Z,1.42
2023-11-21T06:32:35.761Z,2.42
2023-11-21T06:34:37.331Z,1.70
2023-11-21T06:36:38.825Z,2.65
2023-11-21T06:38:40.645Z,1.40
2023-11-21T06:40:42.264Z,3.95
2023-11-21T06:42:45.325Z,2.40
2023-11-21T06:44:48.001Z,2.78
2023-11-21T06:46:49.904Z,2.13
2023-11-21T06:48:51.750Z,2.72
2023-11-21T06:50:53.521Z,1.77
2023-11-21T06:52:55.271Z,2.47
2023-11-21T06:54:56.909Z,3.30
2023-11-21T06:56:59.134Z,2.08
2023-11-21T06:59:00.640Z,2.80
2023-11-21T07:01:02.142Z,2.97
2023-11-21T07:03:03.866Z,2.45
2023-11-21T07:05:06.962Z,3.08
2023-11-21T07:07:08.615Z,3.25
2023-11-21T07:09:13.261Z,2.70
2023-11-21T07:11:15.427Z,3.65
2023-11-21T07:13:16.865Z,3.28
2023-11-21T07:15:20.708Z,2.83
2023-11-21T07:17:24.433Z,3.30
2023-11-21T07:19:26.077Z,3.53
2023-11-21T07:21:27.816Z,2.75
2023-11-21T07:23:29.292Z,2.53
2023-11-21T07:25:30.830Z,3.10
2023-11-21T07:27:34.858Z,2.50
2023-11-21T07:29:36.327Z,2.90
2023-11-21T07:31:39.864Z,2.78
2023-11-21T07:33:41.580Z,2.10
2023-11-21T07:35:47.808Z,3.33
2023-11-21T07:37:50.126Z,2.17
2023-11-21T07:39:55.609Z,2.22
2023-11-21T07:41:57.200Z,2.55
2023-11-21T07:43:59.649Z,4.68
2023-11-21T07:46:05.041Z,3.65
2023-11-21T07:48:07.957Z,3.08
2023-11-21T07:50:10.100Z,2.65
2023-11-21T07:52:12.220Z,3.17
2023-11-21T07:54:13.691Z,4.05
2023-11-21T07:56:16.500Z,3.60
2023-11-21T07:58:18.081Z,2.58
2023-11-21T08:00:26.908Z,2.85
2023-11-21T08:02:33.770Z,3.10
2023-11-21T08:04:36.588Z,4.03
2023-11-21T08:06:38.237Z,2.67
2023-11-21T08:08:39.742Z,4.25
2023-11-21T08:10:43.728Z,3.63
2023-11-21T08:12:45.248Z,4.10
2023-11-21T08:14:46.811Z,6.07
2023-11-21T08:16:48.537Z,2.45
2023-11-21T08:18:50.071Z,2.85
2023-11-21T08:20:51.763Z,3.05
2023-11-21T08:22:54.157Z,3.25
2023-11-21T08:24:56.920Z,3.40
2023-11-21T08:26:59.578Z,3.88
2023-11-21T08:29:02.005Z,3.53
2023-11-21T08:31:03.814Z,2.70
2023-11-21T08:33:06.039Z,4.80
2023-11-21T08:35:09.302Z,3.45
2023-11-21T08:37:11.767Z,2.55
2023-11-21T08:39:14.365Z,2.78
2023-11-21T08:41:17.057Z,4.25
2023-11-21T08:43:21.001Z,4.35
2023-11-21T08:45:23.189Z,3.28
2023-11-21T08:47:25.915Z,3.00
2023-11-21T08:49:28.881Z,5.57
2023-11-21T08:51:30.564Z,3.58
2023-11-21T08:53:32.266Z,3.35
2023-11-21T08:55:38.493Z,5.53
2023-11-21T08:57:45.111Z,3.28
2023-11-21T08:59:46.845Z,3.88
2023-11-21T09:01:49.581Z,3.30
2023-11-21T09:03:51.376Z,3.47
2023-11-21T09:05:53.590Z,3.40
2023-11-21T09:07:55.726Z,4.65
2023-11-21T09:09:57.405Z,4.47
2023-11-21T09:11:58.924Z,4.55
2023-11-21T09:14:01.090Z,2.92
2023-11-21T09:16:04.601Z,2.92
2023-11-21T09:18:06.333Z,3.38
2023-11-21T09:20:11.731Z,2.85
2023-11-21T09:22:13.648Z,2.80
2023-11-21T09:24:15.170Z,2.72
2023-11-21T09:26:17.321Z,3.70
2023-11-21T09:28:21.486Z,2.38
2023-11-21T09:30:23.152Z,2.53
2023-11-21T09:32:25.605Z,2.53
2023-11-21T09:34:29.736Z,2.30
2023-11-21T09:36:34.533Z,2.20
2023-11-21T09:38:36.556Z,2.58
2023-11-21T09:40:38.827Z,3.08
2023-11-21T09:42:48.789Z,3.75
2023-11-21T09:45:24.731Z,2.90
2023-11-21T09:47:29.380Z,4.95
2023-11-21T09:49:38.331Z,5.30
2023-11-21T09:51:47.866Z,3.10
2023-11-21T09:53:55.983Z,3.00
2023-11-21T09:55:58.365Z,3.22
2023-11-21T09:58:00.012Z,2.22
2023-11-21T10:00:06.346Z,3.92
2023-11-21T10:02:13.956Z,2.42
2023-11-21T10:04:15.616Z,3.50
2023-11-21T10:06:19.837Z,3.53
2023-11-21T10:08:24.887Z,2.50
2023-11-21T10:10:30.847Z,4.65
2023-11-21T10:12:34.086Z,5.72
2023-11-21T10:14:42.229Z,7.22
2023-11-21T10:16:50.026Z,6.05
2023-11-21T10:18:56.567Z,9.02
2023-11-21T10:21:01.457Z,5.50
2023-11-21T10:23:04.615Z,5.15
2023-11-21T10:25:21.478Z,6.15
2023-11-21T10:27:23.081Z,5.60
2023-11-21T10:29:24.952Z,6.07
2023-11-21T10:31:31.461Z,5.65
2023-11-21T10:33:33.887Z,7.15
2023-11-21T10:35:48.952Z,5.80
2023-11-21T10:38:03.142Z,4.10
2023-11-21T10:40:09.769Z,4.63
2023-11-21T10:42:11.479Z,5.22
2023-11-21T10:44:21.328Z,7.03
2023-11-21T10:46:24.617Z,5.13
2023-11-21T10:48:26.368Z,4.82
2023-11-21T10:50:27.847Z,4.25
2023-11-21T10:52:30.131Z,4.88
2023-11-21T10:54:32.133Z,3.95
2023-11-21T10:56:36.560Z,5.97
2023-11-21T10:58:39.783Z,3.25
2023-11-21T11:00:42.054Z,2.97
2023-11-21T11:02:44.537Z,4.85
2023-11-21T11:04:46.576Z,7.28
2023-11-21T11:07:06.272Z,14.07
2023-11-21T11:09:09.985Z,16.75
2023-11-21T11:11:11.582Z,13.73
2023-11-21T11:13:16.814Z,14.15
2023-11-21T11:15:18.697Z,12.98
2023-11-21T11:17:23.795Z,11.50
2023-11-21T11:19:25.943Z,10.77
2023-11-21T11:21:49.714Z,8.10
2023-11-21T11:24:13.917Z,8.30
2023-11-21T11:26:27.079Z,6.25
2023-11-21T11:28:55.436Z,7.80
2023-11-21T11:31:05.802Z,5.10
2023-11-21T11:33:22.365Z,4.20
2023-11-21T11:35:36.034Z,6.20
2023-11-21T11:37:38.137Z,4.07
2023-11-21T11:39:45.442Z,15.27
2023-11-21T11:41:48.289Z,23.38
2023-11-21T11:43:49.987Z,20.65
2023-11-21T11:45:53.205Z,25.08
2023-11-21T11:47:58.538Z,20.45
2023-11-21T11:50:09.536Z,16.20
2023-11-21T11:52:33.221Z,11.45
2023-11-21T11:54:37.687Z,7.40
2023-11-21T11:56:41.342Z,8.85
2023-11-21T11:58:43.131Z,7.38
2023-11-21T12:00:52.636Z,7.45
2023-11-21T12:02:57.894Z,6.68
2023-11-21T12:04:59.454Z,6.30
2023-11-21T12:07:04.576Z,5.03
2023-11-21T12:09:06.277Z,5.05
2023-11-21T12:11:08.063Z,3.92
2023-11-21T12:13:13.195Z,5.40
2023-11-21T12:15:15.209Z,3.50
2023-11-21T12:17:16.720Z,3.72
2023-11-21T12:19:19.292Z,3.28
2023-11-21T12:21:22.246Z,3.53
2023-11-21T12:23:23.709Z,4.53
2023-11-21T12:25:30.920Z,2.33
2023-11-21T12:27:32.630Z,2.63
2023-11-21T12:29:34.371Z,2.58
2023-11-21T12:31:36.390Z,3.47
2023-11-21T12:33:38.017Z,3.25
2023-11-21T12:35:39.780Z,2.35
2023-11-21T12:37:45.564Z,4.07
2023-11-21T12:39:47.321Z,4.32
2023-11-21T12:41:49.013Z,2.97
2023-11-21T12:43:50.739Z,3.45
2023-11-21T12:45:54.048Z,2.55
2023-11-21T12:47:56.140Z,2.85
2023-11-21T12:50:00.143Z,3.67
2023-11-21T12:52:02.133Z,2.75
2023-11-21T12:54:04.623Z,3.42
2023-11-21T12:56:13.327Z,2.95
2023-11-21T12:58:15.236Z,2.63
2023-11-21T13:00:28.219Z,1.95
2023-11-21T13:02:31.597Z,2.72
2023-11-21T13:04:35.876Z,1.92
2023-11-21T13:06:42.017Z,2.33
2023-11-21T13:08:45.582Z,2.63
2023-11-21T13:10:49.671Z,3.45
2023-11-21T13:12:52.938Z,3.53
2023-11-21T13:14:54.510Z,2.88
2023-11-21T13:16:56.910Z,3.65
2023-11-21T13:18:59.031Z,5.35
2023-11-21T13:21:11.176Z,2.08
2023-11-21T13:23:17.691Z,2.22
2023-11-21T13:25:19.179Z,2.95
2023-11-21T13:27:20.675Z,2.45
2023-11-21T13:29:22.564Z,3.17
2023-11-21T13:31:28.308Z,3.42
2023-11-21T13:33:30.022Z,2.15
2023-11-21T13:35:35.554Z,1.60
2023-11-21T13:37:37.790Z,2.53
2023-11-21T13:39:45.278Z,2.80
2023-11-21T13:41:49.220Z,2.78
2023-11-21T13:44:00.009Z,4.93
2023-11-21T13:46:14.130Z,3.67
2023-11-21T13:48:15.691Z,1.90
2023-11-21T13:50:28.028Z,2.60
2023-11-21T13:52:32.771Z,3.15
2023-11-21T13:54:34.498Z,3.30
2023-11-21T13:56:37.149Z,5.03
2023-11-21T13:58:52.838Z,4.47
2023-11-21T14:00:58.148Z,3.15
2023-11-21T14:03:04.019Z,4.40
2023-11-21T14:05:10.587Z,2.63
2023-11-21T14:07:23.875Z,5.38
2023-11-21T14:09:34.938Z,3.40
2023-11-21T14:11:43.260Z,3.95
2023-11-21T14:13:49.833Z,3.28
2023-11-21T14:15:58.559Z,2.28
2023-11-21T14:18:03.521Z,3.80
2023-11-21T14:20:06.455Z,2.53
2023-11-21T14:22:11.261Z,3.25
2023-11-21T14:24:19.052Z,4.25
2023-11-21T14:26:21.785Z,3.72
2023-11-21T14:28:24.431Z,5.30
2023-11-21T14:30:26.115Z,5.07
2023-11-21T14:32:27.693Z,5.40
2023-11-21T14:34:29.365Z,5.72
2023-11-21T14:36:31.572Z,7.30
2023-11-21T14:38:33.835Z,5.80
2023-11-21T14:40:37.117Z,5.10
2023-11-21T14:42:40.791Z,6.28
2023-11-21T14:44:43.345Z,6.57
2023-11-21T14:46:50.778Z,6.97
2023-11-21T14:49:19.216Z,5.95
2023-11-21T14:51:32.763Z,5.65
2023-11-21T14:53:44.161Z,10.98
2023-11-21T14:55:52.264Z,12.30
2023-11-21T14:57:54.472Z,11.55
2023-11-21T14:59:59.260Z,12.57
2023-11-21T15:02:16.831Z,9.07
2023-11-21T15:04:37.844Z,8.68
2023-11-21T15:06:42.592Z,8.90
2023-11-21T15:08:44.628Z,7.05
2023-11-21T15:10:53.936Z,7.63
2023-11-21T15:12:55.600Z,6.60
2023-11-21T15:14:59.120Z,6.10
2023-11-21T15:17:02.000Z,5.97
2023-11-21T15:19:03.786Z,9.13
2023-11-21T15:21:05.502Z,9.20
2023-11-21T15:23:07.412Z,9.43
2023-11-21T15:25:11.797Z,8.80
2023-11-21T15:27:14.573Z,5.63
2023-11-21T15:29:17.221Z,5.05
2023-11-21T15:31:26.015Z,10.13
2023-11-21T15:33:28.570Z,5.38
2023-11-21T15:35:30.372Z,4.00
2023-11-21T15:37:31.854Z,4.68
2023-11-21T15:39:33.313Z,7.20
2023-11-21T15:41:35.105Z,7.90
2023-11-21T15:43:36.586Z,6.80
2023-11-21T15:45:40.233Z,5.13
2023-11-21T15:47:41.781Z,7.57
2023-11-21T15:49:43.607Z,6.43
2023-11-21T15:51:53.928Z,6.03
2023-11-21T15:53:55.642Z,7.70
2023-11-21T15:55:57.147Z,7.22
2023-11-21T15:57:59.632Z,4.75
2023-11-21T16:00:01.135Z,6.28
2023-11-21T16:02:06.691Z,5.40
2023-11-21T16:04:08.493Z,6.95
2023-11-21T16:06:12.341Z,6.60
2023-11-21T16:08:14.100Z,6.88
2023-11-21T16:10:16.676Z,5.10
2023-11-21T16:12:20.879Z,7.45
2023-11-21T16:14:29.533Z,4.93
2023-11-21T16:16:36.637Z,8.65
2023-11-21T16:18:38.071Z,8.20
2023-11-21T16:20:39.673Z,6.90
2023-11-21T16:22:41.534Z,8.05
2023-11-21T16:24:43.984Z,8.45
2023-11-21T16:26:46.996Z,8.77
2023-11-21T16:28:48.975Z,10.02
2023-11-21T16:30:51.494Z,8.15
2023-11-21T16:32:53.060Z,7.90
2023-11-21T16:34:54.830Z,8.60
2023-11-21T16:36:56.934Z,6.82
2023-11-21T16:38:58.682Z,6.35
2023-11-21T16:41:00.324Z,6.28
2023-11-21T16:43:02.226Z,6.13
2023-11-21T16:45:04.455Z,6.68
2023-11-21T16:47:06.717Z,5.43
2023-11-21T16:49:09.026Z,7.13
2023-11-21T16:51:12.586Z,5.18
2023-11-21T16:53:14.919Z,7.75
2023-11-21T16:55:17.104Z,5.97
2023-11-21T16:57:18.671Z,6.10
2023-11-21T16:59:21.467Z,8.18
2023-11-21T17:19:49.939Z,6.88
2023-11-21T17:39:41.447Z,9.95
2023-11-21T17:41:42.999Z,8.95
2023-11-21T17:44:15.030Z,9.25
2023-11-21T17:46:24.066Z,10.63
2023-11-21T17:48:28.813Z,7.78
2023-11-21T17:50:30.699Z,7.07
2023-11-21T17:52:32.152Z,8.05
2023-11-21T17:54:33.940Z,8.43
2023-11-21T17:56:36.612Z,7.20
2023-11-21T17:58:38.083Z,7.30
2023-11-21T18:00:40.141Z,8.43
2023-11-21T18:02:41.797Z,10.73
2023-11-21T18:04:43.356Z,7.07
2023-11-21T18:06:45.565Z,7.05
2023-11-21T18:08:47.087Z,6.43
2023-11-21T18:10:49.107Z,6.57
2023-11-21T18:12:50.582Z,4.88
2023-11-21T18:14:53.495Z,6.00
2023-11-21T18:16:59.960Z,6.20
2023-11-21T18:19:02.071Z,4.70
2023-11-21T18:21:03.670Z,6.57
2023-11-21T18:25:31.082Z,5.25
2023-11-21T18:27:32.703Z,4.18
2023-11-21T18:29:34.265Z,6.25
2023-11-21T18:32:00.863Z,5.55
2023-11-21T18:34:07.952Z,7.70
2023-11-21T18:36:11.580Z,5.15
2023-11-21T18:38:22.249Z,5.93
2023-11-21T18:40:23.980Z,5.20
2023-11-21T18:42:25.720Z,6.50
2023-11-21T18:44:27.276Z,5.78
2023-11-21T18:46:37.552Z,5.00
2023-11-21T18:48:39.354Z,4.95
2023-11-21T18:50:40.933Z,5.55
2023-11-21T18:52:42.522Z,4.07
2023-11-21T18:54:44.726Z,9.82
2023-11-21T18:56:46.213Z,5.60
2023-11-21T18:58:52.954Z,3.60
2023-11-21T19:01:00.256Z,4.07
2023-11-21T19:03:01.843Z,6.22
2023-11-21T19:05:07.610Z,3.33
2023-11-21T19:07:10.276Z,4.20
2023-11-21T19:09:13.171Z,2.78
2023-11-21T19:11:14.800Z,3.80
2023-11-21T19:13:18.794Z,4.38
2023-11-21T19:15:20.844Z,3.03
2023-11-21T19:17:24.005Z,3.08
2023-11-21T19:19:25.794Z,2.45
2023-11-21T19:21:27.272Z,2.10
2023-11-21T19:23:28.749Z,3.42
2023-11-21T19:25:55.725Z,2.42
2023-11-21T19:27:58.221Z,2.88
2023-11-21T19:29:59.946Z,1.73
2023-11-21T19:32:06.270Z,1.27
2023-11-21T19:34:14.065Z,3.85
2023-11-21T19:36:16.165Z,1.83
2023-11-21T19:38:46.108Z,1.30
2023-11-21T19:40:48.001Z,1.33
2023-11-21T19:42:49.643Z,2.63
2023-11-21T19:44:51.222Z,2.20
2023-11-21T19:47:18.452Z,2.20
2023-11-21T19:49:20.978Z,3.20
2023-11-21T19:51:23.081Z,2.20
2023-11-21T19:53:29.689Z,2.08
2023-11-21T19:55:36.255Z,2.33
2023-11-21T19:57:38.514Z,2.17
2023-11-21T19:59:44.102Z,3.38
2023-11-21T20:01:45.761Z,2.28
2023-11-21T20:03:48.952Z,3.15
2023-11-21T20:05:50.563Z,3.63
2023-11-21T20:07:52.462Z,2.83
2023-11-21T20:09:54.198Z,2.92
2023-11-21T20:11:59.150Z,3.58
2023-11-21T20:14:05.224Z,3.20
2023-11-21T20:16:07.254Z,3.35
2023-11-21T20:18:08.829Z,2.80
2023-11-21T20:20:16.931Z,2.75
2023-11-21T20:22:20.522Z,3.33
2023-11-21T20:24:29.109Z,3.65
2023-11-21T20:26:32.547Z,2.65
2023-11-21T20:28:40.376Z,2.90
2023-11-21T20:30:41.881Z,3.25
2023-11-21T20:32:43.841Z,3.00
2023-11-21T20:34:50.307Z,2.58
2023-11-21T20:36:52.791Z,3.03
2023-11-21T20:38:54.935Z,2.97
2023-11-21T20:40:56.725Z,3.28
2023-11-21T20:43:23.453Z,2.90
2023-11-21T20:45:26.512Z,2.65
2023-11-21T20:47:28.331Z,4.35
2023-11-21T20:49:38.633Z,3.25
2023-11-21T20:51:47.047Z,3.25
2023-11-21T20:53:48.558Z,2.63
2023-11-21T20:55:52.780Z,3.63
2023-11-21T20:57:55.503Z,2.33
2023-11-21T20:59:57.025Z,2.47
2023-11-21T21:02:24.145Z,2.50
2023-11-21T21:04:32.010Z,2.45
2023-11-21T21:06:34.060Z,3.05
2023-11-21T21:08:38.712Z,2.53
2023-11-21T21:10:42.178Z,2.80
2023-11-21T21:12:53.403Z,2.20
2023-11-21T21:14:57.250Z,2.15
2023-11-21T21:17:02.200Z,2.40
2023-11-21T21:19:05.529Z,2.70
2023-11-21T21:21:07.052Z,2.65
2023-11-21T21:25:34.332Z,2.30
2023-11-21T21:27:37.480Z,2.10
2023-11-21T21:29:38.991Z,3.55
2023-11-21T21:31:40.488Z,2.83
2023-11-21T21:33:42.265Z,3.03
2023-11-21T21:35:44.339Z,2.72
2023-11-21T21:37:50.848Z,2.85
2023-11-21T21:39:52.392Z,3.65
2023-11-21T21:41:53.940Z,3.45
2023-11-21T21:43:59.377Z,3.42
2023-11-21T21:46:01.582Z,3.55
2023-11-21T21:48:03.195Z,3.85
2023-11-21T21:50:05.098Z,3.92
2023-11-21T21:52:06.924Z,3.47
2023-11-21T21:54:09.134Z,3.47
2023-11-21T21:56:14.680Z,2.80
2023-11-21T21:58:16.211Z,2.83
2023-11-21T22:00:18.986Z,3.28
2023-11-21T22:02:24.475Z,2.95
2023-11-21T22:04:26.015Z,3.55
2023-11-21T22:06:29.799Z,2.63
2023-11-21T22:08:56.598Z,3.80
2023-11-21T22:10:59.266Z,2.53
2023-11-21T22:13:00.779Z,2.20
2023-11-21T22:15:05.659Z,2.65
2023-11-21T22:17:09.516Z,2.60
2023-11-21T22:19:11.559Z,4.05
2023-11-21T22:21:19.013Z,4.35
2023-11-21T22:30:38.426Z,3.22
2023-11-21T22:32:44.174Z,2.72
2023-11-21T22:34:50.944Z,2.67
2023-11-21T22:36:54.123Z,2.85
2023-11-21T22:38:55.702Z,3.25
2023-11-21T22:40:57.675Z,3.33
2023-11-21T22:43:00.086Z,2.60
2023-11-21T22:45:01.728Z,3.03
2023-11-21T22:47:31.238Z,3.17
2023-11-21T22:49:32.760Z,3.38
2023-11-21T22:51:34.242Z,4.38
2023-11-21T22:53:36.972Z,3.15
2023-11-21T22:55:38.467Z,4.65
2023-11-21T22:57:39.959Z,4.78
2023-11-21T22:59:41.787Z,5.80
2023-11-21T23:01:43.351Z,5.15
2023-11-21T23:03:45.529Z,4.22
2023-11-21T23:05:47.174Z,4.00
2023-11-21T23:07:48.737Z,3.60
2023-11-21T23:09:50.200Z,3.22
2023-11-21T23:11:52.149Z,3.70
2023-11-21T23:13:53.764Z,4.70
2023-11-21T23:16:00.132Z,3.78
2023-11-21T23:18:01.857Z,5.43
2023-11-21T23:20:10.357Z,3.60
2023-11-21T23:22:16.874Z,2.97
2023-11-21T23:24:21.505Z,3.72
2023-11-21T23:26:48.958Z,4.25
2023-11-21T23:28:55.510Z,3.15
2023-11-21T23:30:57.138Z,3.40
2023-11-21T23:32:58.719Z,3.15
2023-11-21T23:35:05.974Z,2.90
2023-11-21T23:37:08.165Z,3.03
2023-11-21T23:39:09.788Z,2.92
2023-11-21T23:41:14.119Z,4.95
2023-11-21T23:43:15.820Z,3.97
2023-11-21T23:45:17.584Z,3.45
2023-11-21T23:47:19.114Z,3.30
2023-11-21T23:49:20.638Z,3.25
2023-11-21T23:51:22.241Z,3.10
2023-11-21T23:53:23.836Z,3.92
2023-11-21T23:55:25.425Z,3.75
2023-11-21T23:57:26.958Z,3.42
2023-11-21T23:59:28.515Z,3.33
